createdAt,value
2022-11-21T00:00:02.550Z,6.35
2022-11-21T00:02:53.926Z,4.28
2022-11-21T00:05:45.205Z,3.63
2022-11-21T00:08:32.450Z,7.32
2022-11-21T00:11:19.709Z,3.67
2022-11-21T00:14:07.035Z,3.45
2022-11-21T00:16:57.301Z,6.80
2022-11-21T00:23:14.492Z,4.00
2022-11-21T00:26:11.001Z,4.65
2022-11-21T00:28:58.134Z,7.78
2022-11-21T00:31:45.310Z,4.60
2022-11-21T00:34:32.560Z,5.28
2022-11-21T00:37:19.690Z,4.88
2022-11-21T00:40:07.727Z,2.65
2022-11-21T00:42:54.835Z,2.25
2022-11-21T00:45:42.403Z,3.95
2022-11-21T00:48:30.235Z,4.05
2022-11-21T00:51:17.432Z,3.53
2022-11-21T00:54:04.587Z,5.20
2022-11-21T00:56:52.002Z,2.80
2022-11-21T00:59:40.055Z,3.58
2022-11-21T01:02:27.270Z,5.25
2022-11-21T01:05:14.701Z,4.80
2022-11-21T01:08:03.653Z,2.00
2022-11-21T01:10:50.818Z,3.50
2022-11-21T01:13:38.470Z,5.70
2022-11-21T01:16:28.384Z,3.78
2022-11-21T01:19:15.695Z,2.70
2022-11-21T01:22:03.304Z,3.00
2022-11-21T01:24:50.504Z,4.28
2022-11-21T01:27:37.813Z,4.28
2022-11-21T01:30:25.066Z,6.03
2022-11-21T01:33:12.338Z,3.47
2022-11-21T01:36:07.620Z,5.68
2022-11-21T01:38:57.230Z,5.55
2022-11-21T01:41:45.715Z,3.72
2022-11-21T01:44:54.218Z,3.13
2022-11-21T01:47:41.410Z,2.30
2022-11-21T01:50:29.604Z,10.48
2022-11-21T01:53:17.203Z,4.07
2022-11-21T01:56:05.982Z,3.88
2022-11-21T01:58:57.877Z,8.20
2022-11-21T02:01:47.088Z,2.25
2022-11-21T02:04:35.274Z,3.38
2022-11-21T02:07:24.935Z,2.85
2022-11-21T02:10:12.708Z,3.70
2022-11-21T02:13:00.733Z,2.67
2022-11-21T02:15:48.959Z,2.17
2022-11-21T02:18:36.330Z,4.45
2022-11-21T02:21:39.110Z,4.43
2022-11-21T02:24:38.575Z,3.53
2022-11-21T02:27:25.712Z,3.90
2022-11-21T02:30:13.409Z,2.13
2022-11-21T02:33:01.096Z,2.97
2022-11-21T02:36:02.113Z,4.55
2022-11-21T02:38:50.799Z,3.72
2022-11-21T02:41:45.668Z,3.40
2022-11-21T02:44:43.795Z,4.97
2022-11-21T02:47:32.854Z,1.40
2022-11-21T02:50:25.698Z,1.45
2022-11-21T02:53:16.921Z,1.95
2022-11-21T02:58:54.773Z,0.85
2022-11-21T03:01:42.008Z,0.67
2022-11-21T03:04:29.556Z,0.85
2022-11-21T03:07:17.504Z,3.28
2022-11-21T03:10:05.641Z,3.17
2022-11-21T03:13:01.607Z,3.08
2022-11-21T03:15:49.473Z,2.13
2022-11-21T03:18:36.571Z,2.50
2022-11-21T03:21:23.833Z,4.93
2022-11-21T03:24:11.595Z,4.25
2022-11-21T03:26:58.940Z,2.38
2022-11-21T03:29:46.180Z,4.97
2022-11-21T03:32:33.262Z,2.28
2022-11-21T03:35:20.797Z,4.38
2022-11-21T03:38:08.173Z,2.75
2022-11-21T03:40:55.324Z,2.75
2022-11-21T03:43:42.713Z,2.10
2022-11-21T03:46:33.634Z,3.85
2022-11-21T03:49:20.917Z,4.53
2022-11-21T03:52:08.298Z,2.92
2022-11-21T03:54:55.504Z,5.18
2022-11-21T03:57:42.607Z,3.92
2022-11-21T04:00:31.112Z,5.78
2022-11-21T04:03:18.620Z,3.47
2022-11-21T04:06:06.376Z,5.20
2022-11-21T04:08:53.918Z,4.18
2022-11-21T04:11:41.152Z,3.85
2022-11-21T04:14:28.513Z,4.80
2022-11-21T04:17:16.023Z,5.30
2022-11-21T04:20:03.402Z,4.85
2022-11-21T04:22:50.615Z,3.17
2022-11-21T04:25:37.989Z,3.15
2022-11-21T04:28:25.752Z,7.47
2022-11-21T04:31:13.344Z,4.15
2022-11-21T04:34:00.552Z,4.00
2022-11-21T04:36:50.255Z,2.22
2022-11-21T04:39:37.632Z,5.10
2022-11-21T04:42:24.793Z,3.45
2022-11-21T04:45:14.107Z,3.38
2022-11-21T04:48:01.721Z,1.38
2022-11-21T04:50:48.987Z,2.10
2022-11-21T04:53:39.994Z,5.05
2022-11-21T04:56:30.817Z,13.88
2022-11-21T04:59:18.020Z,8.65
2022-11-21T05:02:05.251Z,3.20
2022-11-21T05:04:52.492Z,3.35
2022-11-21T05:07:39.782Z,4.80
2022-11-21T05:10:27.141Z,2.78
2022-11-21T05:13:23.317Z,3.55
2022-11-21T05:16:10.518Z,5.07
2022-11-21T05:18:57.804Z,4.13
2022-11-21T05:21:44.953Z,5.47
2022-11-21T05:24:32.340Z,5.07
2022-11-21T05:27:19.597Z,5.32
2022-11-21T05:30:07.327Z,6.85
2022-11-21T05:32:54.492Z,7.35
2022-11-21T05:35:43.483Z,6.18
2022-11-21T05:38:31.125Z,4.30
2022-11-21T05:41:18.818Z,4.35
2022-11-21T05:44:05.965Z,3.80
2022-11-21T05:46:53.436Z,5.80
2022-11-21T05:49:40.657Z,3.60
2022-11-21T05:52:28.465Z,4.63
2022-11-21T05:55:15.734Z,5.35
2022-11-21T05:58:03.363Z,6.50
2022-11-21T06:00:59.582Z,4.50
2022-11-21T06:03:47.185Z,5.63
2022-11-21T06:06:34.430Z,6.60
2022-11-21T06:09:21.611Z,4.47
2022-11-21T06:12:08.970Z,6.47
2022-11-21T06:14:56.099Z,5.75
2022-11-21T06:17:43.304Z,12.48
2022-11-21T06:20:30.545Z,12.13
2022-11-21T06:23:17.663Z,5.53
2022-11-21T06:26:07.287Z,5.97
2022-11-21T06:28:55.136Z,9.88
2022-11-21T06:31:42.252Z,11.52
2022-11-21T06:34:29.795Z,10.43
2022-11-21T06:37:17.142Z,10.45
2022-11-21T06:40:04.822Z,9.10
2022-11-21T06:42:52.057Z,9.63
2022-11-21T06:45:39.180Z,11.63
2022-11-21T06:48:26.279Z,12.27
2022-11-21T06:51:19.673Z,7.13
2022-11-21T06:54:06.790Z,9.63
2022-11-21T06:56:55.585Z,8.77
2022-11-21T06:59:42.854Z,8.88
2022-11-21T07:02:31.010Z,10.70
2022-11-21T07:05:18.332Z,11.45
2022-11-21T07:08:10.489Z,7.30
2022-11-21T07:14:13.677Z,11.55
2022-11-21T07:17:00.815Z,7.53
2022-11-21T07:19:47.918Z,8.32
2022-11-21T07:22:35.049Z,11.02
2022-11-21T07:25:23.056Z,9.45
2022-11-21T07:28:10.821Z,9.23
2022-11-21T07:30:58.406Z,7.90
2022-11-21T07:33:46.752Z,10.98
2022-11-21T07:36:36.127Z,6.45
2022-11-21T07:39:23.413Z,9.93
2022-11-21T07:42:10.566Z,11.60
2022-11-21T07:44:57.678Z,11.02
2022-11-21T07:47:44.873Z,9.20
2022-11-21T07:50:32.117Z,12.35
2022-11-21T07:53:19.329Z,6.03
2022-11-21T07:56:09.495Z,9.23
2022-11-21T07:58:56.769Z,9.05
2022-11-21T08:01:45.731Z,5.70
2022-11-21T08:04:33.183Z,11.90
2022-11-21T08:07:22.087Z,7.45
2022-11-21T08:10:09.447Z,9.95
2022-11-21T08:12:56.851Z,8.38
2022-11-21T08:15:44.238Z,7.38
2022-11-21T08:18:31.999Z,10.50
2022-11-21T08:21:20.689Z,10.30
2022-11-21T08:24:13.469Z,11.48
2022-11-21T08:27:00.788Z,7.10
2022-11-21T08:29:48.255Z,9.07
2022-11-21T08:32:35.779Z,7.60
2022-11-21T08:35:23.583Z,10.38
2022-11-21T08:38:11.117Z,11.35
2022-11-21T08:41:17.904Z,9.18
2022-11-21T08:44:11.120Z,13.38
2022-11-21T08:47:01.581Z,3.55
2022-11-21T08:49:49.045Z,6.25
2022-11-21T08:52:37.472Z,8.43
2022-11-21T08:55:25.238Z,3.17
2022-11-21T08:58:12.570Z,7.22
2022-11-21T09:01:00.601Z,5.60
2022-11-21T09:03:48.510Z,20.83
2022-11-21T09:06:36.458Z,6.63
2022-11-21T09:09:25.504Z,7.85
2022-11-21T09:12:13.105Z,6.32
2022-11-21T09:15:19.250Z,10.00
2022-11-21T09:18:08.001Z,8.20
2022-11-21T09:21:22.315Z,5.53
2022-11-21T09:24:15.675Z,6.60
2022-11-21T09:27:02.941Z,9.55
2022-11-21T09:29:54.120Z,6.47
2022-11-21T09:32:41.634Z,5.65
2022-11-21T09:35:29.297Z,5.85
2022-11-21T09:38:20.968Z,9.73
2022-11-21T09:41:52.511Z,8.50
2022-11-21T09:45:00.843Z,9.63
2022-11-21T09:47:51.001Z,5.05
2022-11-21T09:50:43.663Z,5.60
2022-11-21T09:53:37.999Z,7.10
2022-11-21T09:56:27.670Z,3.95
2022-11-21T09:59:37.082Z,5.97
2022-11-21T10:02:25.341Z,6.63
2022-11-21T10:05:14.838Z,9.57
2022-11-21T10:08:13.082Z,6.13
2022-11-21T10:11:19.171Z,10.57
2022-11-21T10:14:20.755Z,4.65
2022-11-21T10:17:21.138Z,5.75
2022-11-21T10:20:49.485Z,10.60
2022-11-21T10:23:46.425Z,8.30
2022-11-21T10:26:56.792Z,8.15
2022-11-21T10:30:06.350Z,6.17
2022-11-21T10:32:57.339Z,10.25
2022-11-21T10:35:49.321Z,4.53
2022-11-21T10:38:43.335Z,7.90
2022-11-21T10:41:48.504Z,8.52
2022-11-21T10:44:54.298Z,7.13
2022-11-21T10:47:41.415Z,8.95
2022-11-21T10:50:40.100Z,11.23
2022-11-21T10:53:47.149Z,7.57
2022-11-21T10:56:35.504Z,11.80
2022-11-21T10:59:30.411Z,17.90
2022-11-21T11:02:18.218Z,8.77
2022-11-21T11:05:21.632Z,9.60
2022-11-21T11:08:11.355Z,7.18
2022-11-21T11:11:02.072Z,15.27
2022-11-21T11:14:04.063Z,8.23
2022-11-21T11:16:51.254Z,10.23
2022-11-21T11:19:40.347Z,5.95
2022-11-21T11:22:29.273Z,10.20
2022-11-21T11:25:16.490Z,7.55
2022-11-21T11:28:09.149Z,5.93
2022-11-21T11:30:57.006Z,7.97
2022-11-21T11:33:50.638Z,6.07
2022-11-21T11:36:44.665Z,10.27
2022-11-21T11:39:39.738Z,6.97
2022-11-21T11:42:57.909Z,4.70
2022-11-21T11:46:15.829Z,7.07
2022-11-21T11:49:21.052Z,4.90
2022-11-21T11:52:11.622Z,4.25
2022-11-21T11:55:19.108Z,6.38
2022-11-21T11:58:38.587Z,3.83
2022-11-21T12:01:47.158Z,7.30
2022-11-21T12:04:44.897Z,9.80
2022-11-21T12:11:24.917Z,6.13
2022-11-21T12:14:57.351Z,6.15
2022-11-21T12:17:47.673Z,5.85
2022-11-21T12:20:42.403Z,7.78
2022-11-21T12:23:48.096Z,3.13
2022-11-21T12:27:01.080Z,5.60
2022-11-21T12:30:25.415Z,3.75
2022-11-21T12:33:21.401Z,3.08
2022-11-21T12:36:21.346Z,2.75
2022-11-21T12:39:30.671Z,3.70
2022-11-21T12:42:49.622Z,5.70
2022-11-21T12:45:55.374Z,4.93
2022-11-21T12:49:16.290Z,4.97
2022-11-21T12:52:25.671Z,3.17
2022-11-21T12:55:42.448Z,5.00
2022-11-21T12:58:39.344Z,5.25
2022-11-21T13:01:38.513Z,5.90
2022-11-21T13:04:36.365Z,4.00
2022-11-21T13:07:28.511Z,4.85
2022-11-21T13:10:17.608Z,6.68
2022-11-21T13:13:29.347Z,7.32
2022-11-21T13:16:39.703Z,2.80
2022-11-21T13:19:50.466Z,6.47
2022-11-21T13:22:37.701Z,4.70
2022-11-21T13:25:40.014Z,3.53
2022-11-21T13:28:32.657Z,5.18
2022-11-21T13:31:30.818Z,4.97
2022-11-21T13:34:46.784Z,3.97
2022-11-21T13:37:52.478Z,4.90
2022-11-21T13:41:00.402Z,4.82
2022-11-21T13:43:48.143Z,5.05
2022-11-21T13:47:17.151Z,3.47
2022-11-21T13:50:04.317Z,5.28
2022-11-21T13:52:57.317Z,8.48
2022-11-21T13:56:11.983Z,4.88
2022-11-21T13:59:21.244Z,5.53
2022-11-21T14:03:05.971Z,3.40
2022-11-21T14:06:27.010Z,5.03
2022-11-21T14:09:23.714Z,3.35
2022-11-21T14:12:35.261Z,2.45
2022-11-21T14:15:48.170Z,5.20
2022-11-21T14:18:38.164Z,7.80
2022-11-21T14:21:34.599Z,5.53
2022-11-21T14:24:22.162Z,6.47
2022-11-21T14:27:27.094Z,6.97
2022-11-21T14:30:31.048Z,4.75
2022-11-21T14:33:29.179Z,4.18
2022-11-21T14:36:25.700Z,4.82
2022-11-21T14:42:24.431Z,4.68
2022-11-21T14:45:23.010Z,4.57
2022-11-21T14:48:12.898Z,4.82
2022-11-21T14:51:01.863Z,7.45
2022-11-21T14:53:52.956Z,6.50
2022-11-21T14:56:41.097Z,5.25
2022-11-21T14:59:40.467Z,7.95
2022-11-21T15:02:31.386Z,5.32
2022-11-21T15:05:34.361Z,6.15
2022-11-21T15:09:03.245Z,227.90
2022-11-21T15:11:38.180Z,11.60
2022-11-21T15:14:38.532Z,12.23
2022-11-21T15:17:27.126Z,11.43
2022-11-21T15:20:14.450Z,11.40
2022-11-21T15:23:02.351Z,12.88
2022-11-21T15:25:49.587Z,11.73
2022-11-21T15:28:36.816Z,12.63
2022-11-21T15:31:24.182Z,11.38
2022-11-21T15:34:37.076Z,11.32
2022-11-21T15:37:25.319Z,13.55
2022-11-21T15:40:19.964Z,12.57
2022-11-21T15:43:09.434Z,11.00
2022-11-21T15:46:02.787Z,9.57
2022-11-21T15:48:56.984Z,8.68
2022-11-21T15:54:54.397Z,9.40
2022-11-21T15:57:43.073Z,8.02
2022-11-21T16:00:30.209Z,9.55
2022-11-21T16:03:17.425Z,9.43
2022-11-21T16:06:04.531Z,7.82
2022-11-21T16:08:51.730Z,9.48
2022-11-21T16:11:43.172Z,9.23
2022-11-21T16:14:30.286Z,13.52
2022-11-21T16:17:17.510Z,10.07
2022-11-21T16:20:05.110Z,6.97
2022-11-21T16:22:52.356Z,7.82
2022-11-21T16:25:52.216Z,7.55
2022-11-21T16:28:39.708Z,11.65
2022-11-21T16:31:28.925Z,7.20
2022-11-21T16:34:19.527Z,13.15
2022-11-21T16:37:07.701Z,15.35
2022-11-21T16:39:55.022Z,13.18
2022-11-21T16:42:42.257Z,10.27
2022-11-21T16:45:32.408Z,15.80
2022-11-21T16:48:21.292Z,17.23
2022-11-21T16:51:19.221Z,14.65
2022-11-21T16:54:09.137Z,15.43
2022-11-21T16:56:56.887Z,17.57
2022-11-21T16:59:43.965Z,13.07
2022-11-21T17:02:31.163Z,17.20
2022-11-21T17:05:18.691Z,14.68
2022-11-21T17:08:07.045Z,14.25
2022-11-21T17:10:54.526Z,11.13
2022-11-21T17:13:43.232Z,9.40
2022-11-21T17:16:31.381Z,9.52
2022-11-21T17:19:18.535Z,8.90
2022-11-21T17:22:05.667Z,10.48
2022-11-21T17:24:53.318Z,9.73
2022-11-21T17:27:41.046Z,8.75
2022-11-21T17:30:28.325Z,9.48
2022-11-21T17:33:15.489Z,9.02
2022-11-21T17:36:08.175Z,7.00
2022-11-21T17:38:55.799Z,7.82
2022-11-21T17:41:42.864Z,10.55
2022-11-21T17:44:33.353Z,7.10
2022-11-21T17:47:20.606Z,6.20
2022-11-21T17:50:10.405Z,7.95
2022-11-21T17:52:57.542Z,6.35
2022-11-21T17:55:44.672Z,8.07
2022-11-21T17:58:32.659Z,10.00
2022-11-21T18:01:20.949Z,6.88
2022-11-21T18:04:14.663Z,7.43
2022-11-21T18:07:02.446Z,10.50
2022-11-21T18:09:49.602Z,7.97
2022-11-21T18:12:36.832Z,6.50
2022-11-21T18:15:24.131Z,7.15
2022-11-21T18:18:11.531Z,7.18
2022-11-21T18:21:22.418Z,6.65
2022-11-21T18:24:09.693Z,8.48
2022-11-21T18:26:56.939Z,6.18
2022-11-21T18:29:44.148Z,6.18
2022-11-21T18:32:32.284Z,5.45
2022-11-21T18:35:19.486Z,5.28
2022-11-21T18:38:06.655Z,6.13
2022-11-21T18:40:54.048Z,4.85
2022-11-21T18:43:43.102Z,8.80
2022-11-21T18:46:32.048Z,4.45
2022-11-21T18:49:19.254Z,8.20
2022-11-21T18:52:06.408Z,4.75
2022-11-21T18:54:53.546Z,69.13
2022-11-21T18:57:40.694Z,6.03
2022-11-21T19:00:27.948Z,4.15
2022-11-21T19:03:15.978Z,7.35
2022-11-21T19:06:06.456Z,7.43
2022-11-21T19:08:55.692Z,5.97
2022-11-21T19:11:43.574Z,3.53
2022-11-21T19:14:30.929Z,1999.90
2022-11-21T19:17:18.635Z,1999.90
2022-11-21T19:20:06.321Z,1999.90
2022-11-21T19:22:53.642Z,1999.90
2022-11-21T19:25:40.897Z,1999.90
2022-11-21T19:28:29.867Z,1999.90
2022-11-21T19:31:18.357Z,1999.90
2022-11-21T19:34:06.361Z,1999.90
2022-11-21T19:36:53.531Z,1999.90
2022-11-21T19:39:40.743Z,1999.90
2022-11-21T19:42:28.148Z,1999.90
2022-11-21T19:45:15.408Z,1999.90
2022-11-21T19:48:02.518Z,1999.90
2022-11-21T19:51:00.541Z,1999.90
2022-11-21T19:53:47.898Z,1999.90
2022-11-21T19:56:35.847Z,1999.90
2022-11-21T19:59:23.147Z,1999.90
2022-11-21T20:02:17.123Z,1999.90
2022-11-21T20:05:04.472Z,1999.90
2022-11-21T20:07:51.713Z,1999.90
2022-11-21T20:10:38.909Z,1999.90
2022-11-21T20:13:25.984Z,1999.90
2022-11-21T20:16:22.675Z,1999.90
2022-11-21T20:19:14.560Z,1999.90
2022-11-21T20:22:01.617Z,1999.90
2022-11-21T20:24:51.758Z,1999.90
2022-11-21T20:27:39.523Z,1999.90
2022-11-21T20:30:27.856Z,1999.90
2022-11-21T20:33:15.098Z,1999.90
2022-11-21T20:36:04.316Z,1999.90
2022-11-21T20:38:57.116Z,1999.90
2022-11-21T20:41:45.775Z,1999.90
2022-11-21T20:47:40.678Z,1999.90
2022-11-21T20:51:05.734Z,1999.90
2022-11-21T20:53:53.177Z,1999.90
2022-11-21T20:56:44.522Z,1999.90
2022-11-21T20:59:32.418Z,1999.90
2022-11-21T21:02:20.011Z,1999.90
2022-11-21T21:05:07.558Z,30.92
2022-11-21T21:07:54.867Z,11.95
2022-11-21T21:11:04.686Z,33.95
2022-11-21T21:13:53.153Z,13.27
2022-11-21T21:16:40.343Z,11.43
2022-11-21T21:19:27.831Z,13.68
2022-11-21T21:22:15.255Z,16.63
2022-11-21T21:25:02.486Z,17.77
2022-11-21T21:27:50.627Z,17.40
2022-11-21T21:30:40.206Z,14.98
2022-11-21T21:33:27.815Z,12.50
2022-11-21T21:36:18.321Z,19.35
2022-11-21T21:39:05.663Z,5.63
2022-11-21T21:41:53.322Z,5.65
2022-11-21T21:44:40.608Z,5.72
2022-11-21T21:47:28.265Z,5.90
2022-11-21T21:50:16.058Z,8.10
2022-11-21T21:53:03.457Z,7.20
2022-11-21T21:55:50.546Z,6.07
2022-11-21T21:58:39.574Z,8.02
2022-11-21T22:01:29.783Z,5.97
2022-11-21T22:04:19.766Z,8.20
2022-11-21T22:07:08.694Z,5.97
2022-11-21T22:09:55.948Z,6.05
2022-11-21T22:12:44.308Z,4.93
2022-11-21T22:15:31.651Z,5.82
2022-11-21T22:18:18.873Z,7.95
2022-11-21T22:21:14.488Z,4.95
2022-11-21T22:24:28.177Z,6.90
2022-11-21T22:27:15.430Z,4.90
2022-11-21T22:30:02.597Z,5.25
2022-11-21T22:32:50.961Z,4.50
2022-11-21T22:35:38.050Z,4.28
2022-11-21T22:38:25.196Z,5.07
2022-11-21T22:41:20.950Z,3.70
2022-11-21T22:44:08.076Z,6.53
2022-11-21T22:46:55.467Z,6.80
2022-11-21T22:49:42.650Z,6.68
2022-11-21T22:52:30.511Z,6.63
2022-11-21T22:55:17.795Z,11.80
2022-11-21T22:58:05.019Z,6.40
2022-11-21T23:00:52.156Z,6.65
2022-11-21T23:03:40.116Z,6.32
2022-11-21T23:06:27.301Z,7.85
2022-11-21T23:09:14.587Z,7.10
2022-11-21T23:12:02.161Z,7.53
2022-11-21T23:14:49.283Z,7.22
2022-11-21T23:17:36.424Z,5.40
2022-11-21T23:20:23.599Z,10.30
2022-11-21T23:23:10.717Z,6.30
2022-11-21T23:25:58.237Z,7.30
2022-11-21T23:28:45.352Z,6.35
2022-11-21T23:31:33.519Z,7.82
2022-11-21T23:34:20.727Z,10.25
2022-11-21T23:37:07.832Z,8.18
2022-11-21T23:39:54.970Z,6.88
2022-11-21T23:42:42.109Z,8.15
2022-11-21T23:45:29.217Z,6.72
2022-11-21T23:48:16.501Z,10.98
2022-11-21T23:51:03.683Z,8.70
2022-11-21T23:53:51.213Z,6.35
2022-11-21T23:56:38.548Z,7.20
2022-11-21T23:59:25.654Z,7.78
